27/2 a 9/3 - Extensa cuña; caluroso y seco en gran parte del país (tormentas aisladas)

Avatar de Usuario
diegotelesa
Mensajes: 1443
Registrado: Mié Jul 24, 2013 10:48 pm
Ubicación: Ramos Mejía

Re: 27/2 a 9/3 - Extensa cuña; caluroso y seco en gran parte del país (tormentas aisladas)

Mensaje por diegotelesa » Dom Mar 08, 2020 3:17 pm

Lluvia débil acá también.

Avatar de Usuario
Diecha
Mensajes: 11000
Registrado: Jue Ago 25, 2011 9:31 pm
Ubicación: Lomas de Zamora

Re: 27/2 a 9/3 - Extensa cuña; caluroso y seco en gran parte del país (tormentas aisladas)

Mensaje por Diecha » Dom Mar 08, 2020 3:29 pm


marleygaletfede
Mensajes: 2348
Registrado: Lun Feb 20, 2012 10:13 pm
Ubicación: Santa Teresita, Partido de La Costa, Buenos Aires

Re: 27/2 a 9/3 - Extensa cuña; caluroso y seco en gran parte del país (tormentas aisladas)

Mensaje por marleygaletfede » Dom Mar 08, 2020 3:53 pm

Yo pensaba que no iba a ver una nube de aqui a unos cuantos dias más... pero en estos momentos est´¿a todo cubierto y algo oscuro al SO producto, imagino, de los chaparrones que hay yendo hacia el sur del Partido de la Costa y la zona de Pinamar. Está pesadísimo, más la humedad y salitre del mar, INAGUANTABLE

Danywilde
Mensajes: 2461
Registrado: Mar Ene 24, 2012 1:41 pm
Ubicación: Wilde, Buenos Aires

Re: 27/2 a 9/3 - Extensa cuña; caluroso y seco en gran parte del país (tormentas aisladas)

Mensaje por Danywilde » Dom Mar 08, 2020 4:00 pm

Gotititas aisladas en Wilde Oeste. 30 °C clavados en mi patio, pesadongui.

Avatar de Usuario
Diecha
Mensajes: 11000
Registrado: Jue Ago 25, 2011 9:31 pm
Ubicación: Lomas de Zamora

Re: 27/2 a 9/3 - Extensa cuña; caluroso y seco en gran parte del país (tormentas aisladas)

Mensaje por Diecha » Dom Mar 08, 2020 4:01 pm

Imagen

Imagen
Spoiler
Mostrar
Imagen
Imagen
Imagen
Imagen
Imagen
Imagen
Imagen
Imagen
Imagen
Imagen
Imagen
Imagen
Imagen
Última edición por Diecha el Dom Mar 08, 2020 6:34 pm, editado 2 veces en total.

Avatar de Usuario
diegotelesa
Mensajes: 1443
Registrado: Mié Jul 24, 2013 10:48 pm
Ubicación: Ramos Mejía

Re: 27/2 a 9/3 - Extensa cuña; caluroso y seco en gran parte del país (tormentas aisladas)

Mensaje por diegotelesa » Dom Mar 08, 2020 4:14 pm

Se levantó viento ahora y se ve algo más oscuro hacia el oeste.

Avatar de Usuario
Ernest
Mensajes: 11296
Registrado: Vie Jul 17, 2009 10:54 pm
Ubicación: Balvanera, CABA

Re: 27/2 a 9/3 - Extensa cuña; caluroso y seco en gran parte del país (tormentas aisladas)

Mensaje por Ernest » Dom Mar 08, 2020 4:43 pm

Goteando débil por Savio.
Did you want to talk about the weather, or were you just making chitchat?

Twitter: @ErnestoMeteo

Avatar de Usuario
Diecha
Mensajes: 11000
Registrado: Jue Ago 25, 2011 9:31 pm
Ubicación: Lomas de Zamora

Re: 27/2 a 9/3 - Extensa cuña; caluroso y seco en gran parte del país (tormentas aisladas)

Mensaje por Diecha » Dom Mar 08, 2020 5:24 pm

- San Fernando 17 hs: SADF 082000Z 20011KT 8000 -RA NSC 30/18 Q1010
- Aeropaque 17 hs: SABE 082000Z 25005KT 9000 -RA FEW035 OVC100 31/17 Q1010
- Ezeiza 17 hs: SAEZ 082000Z 22003KT 7000 -RA FEW046 OVC100 28/22 Q1010

Imagen
Imagen
Imagen

Avatar de Usuario
Diecha
Mensajes: 11000
Registrado: Jue Ago 25, 2011 9:31 pm
Ubicación: Lomas de Zamora

Re: 27/2 a 9/3 - Extensa cuña; caluroso y seco en gran parte del país (tormentas aisladas)

Mensaje por Diecha » Dom Mar 08, 2020 6:34 pm

Imagen
Spoiler
Mostrar
Imagen
Imagen
Imagen
Imagen
Imagen
Imagen
Imagen
Imagen
Imagen
Imagen
Imagen
Imagen

Avatar de Usuario
Ale de Castelar
Mensajes: 25119
Registrado: Sab Mar 03, 2012 12:25 pm
Ubicación: Caballito

Re: 27/2 a 9/3 - Extensa cuña; caluroso y seco en gran parte del país (tormentas aisladas)

Mensaje por Ale de Castelar » Dom Mar 08, 2020 6:36 pm

Paso un chapa decente al sur de capital

Chato
Adjuntos
IMG_20200308_183114.jpg

Responder